Merritt Island, FL

10:23 PM EST en Noviembre 22, 2014 (GMT -0500)
Nasa Shuttle | Change Station
CLOSE
Current Station
Aeropuerto
Location: Nasa Shuttle,
Altura: 10 ft
Estaciones meteorológicas cercanas

Alt 10 ft 28.61 °N, 80.69 °W | Updated 25 minutes ago

Nublado
Nublado
72 ° F
Sensación térmica 72 ° F
N
12
Viento Variable Viento desde ESE
Gusts 20 mph

Hoy
Alta -- | Baja -- ° F
--% Posibilidad de precipitaciones
Ayer
Alta -- | Baja -- ° F
Precip. -- pul
6:50 AM 5:27 PM
Luna nueva, 0% visible
Presión 30.18 pul
Visibilidad 10.0 Millas
Nubes Muy nublado 2400 ft
Nublado 3000 ft
Punto de rocío 66 ° F
Humedad 83%
Precipitaciones 0.00 pul
Espesor de la nieve No disponible.
UV 0 de una escala de 12
Polen 4.40 de una escala de 12
Calidad del aire No disponible.
Flu Activity No disponible.
METAR KTTS 230258Z AUTO 12010G17KT 10SM BKN024 OVC030 22/19 A3017 RMK AO2 SLP220

More Conditions Fewer Conditions

Presión 30.18 pul
Visibilidad 10.0 Millas
Nubes Muy nublado 2400 ft
Nublado 3000 ft
Punto de rocío 66 ° F
Humedad 83%
Precipitaciones 0.00 pul
Espesor de la nieve No disponible.
UV 0 de una escala de 12
Polen 4.40 de una escala de 12
Calidad del aire No disponible.
Flu Activity No disponible.
METAR KTTS 230258Z AUTO 12010G17KT 10SM BKN024 OVC030 22/19 A3017 RMK AO2 SLP220

More Conditions Fewer Conditions

Nowcast | as of 9:28 PM EST on November 22, 2014

Warmer and more moist south to southwest windflow from the southeast Gulf of Mexico moves overtop of a relatively drier east to southeast wind off the Atlantic. Lowering cloud bases and periods of light rain or drizzle will be the main weather features overnight. Easterly winds of 25 mph with gusts over 30 mph and seas to 9 feet have prompted small craft advisories for all of east central Florida coastal waters from Flagler Beach to Jupiter Inlet out to 60 nautical miles. Additional details...including graphics are available online at: http://www.Srh.NOAA.Gov/mlb/blog.Php

×

10-Day Weather Forecast

Almanac

Astronomía

Nov. 22, 2014 Salida Puesta
Hora real
Crepúsculo civil
Crepúsculo náutico
Crepúsculo astronómico
Luna
Horas de luz
Horas de luz
Tomorrow will be .
, % of the Moon is Illuminated

Extremos de hoy

Máximos del estado Bajos del estado

Community

WunderPhotos

Upload Photos

1,772,990 ¡fotos cargadas!

WunderBlogs® & News

Nearby

Calidad del aire

  Calidad del aire Índice AQ Contaminante
Not available.

Grosos de nieve

Estación Profundido Altura

Actividad de terremotos

Ciudad Distance Mag. Tiempo y dato
Magnitud mínima muestra es 2,5.

Temperaturas de aguas costeras

Lugar Temperatura

Estaciones meteorológicas cercanas